sensor_id;sensor_type;location;lat;lon;timestamp;pressure;altitude;pressure_sealevel;temperature;humidity
48810;BME280;40070;47.322;18.784;2023-02-23T00:01:50;1002.95;;;10.09;58.12
48810;BME280;40070;47.322;18.784;2023-02-23T00:03:54;1002.95;;;9.81;58.88
48810;BME280;40070;47.322;18.784;2023-02-23T00:05:56;1002.95;;;9.84;59.04
48810;BME280;40070;47.322;18.784;2023-02-23T00:07:59;1002.98;;;10.02;58.56
48810;BME280;40070;47.322;18.784;2023-02-23T00:10:01;1002.96;;;10.08;58.26
48810;BME280;40070;47.322;18.784;2023-02-23T00:12:04;1002.96;;;10.07;58.45
48810;BME280;40070;47.322;18.784;2023-02-23T00:14:07;1002.99;;;10.01;58.46
48810;BME280;40070;47.322;18.784;2023-02-23T00:16:10;1003.03;;;10.22;57.73
48810;BME280;40070;47.322;18.784;2023-02-23T00:18:12;1002.96;;;10.37;57.47
48810;BME280;40070;47.322;18.784;2023-02-23T00:20:15;1003.00;;;10.23;57.49
48810;BME280;40070;47.322;18.784;2023-02-23T00:22:17;1003.00;;;10.24;57.65
48810;BME280;40070;47.322;18.784;2023-02-23T00:24:19;1003.01;;;10.30;57.40
48810;BME280;40070;47.322;18.784;2023-02-23T00:26:23;1002.99;;;9.99;58.30
48810;BME280;40070;47.322;18.784;2023-02-23T00:28:26;1002.98;;;10.07;58.26
48810;BME280;40070;47.322;18.784;2023-02-23T00:30:28;1002.99;;;10.11;57.92
48810;BME280;40070;47.322;18.784;2023-02-23T00:32:30;1002.98;;;10.17;57.97
48810;BME280;40070;47.322;18.784;2023-02-23T00:34:33;1002.98;;;9.98;58.11
48810;BME280;40070;47.322;18.784;2023-02-23T00:36:35;1002.97;;;10.13;57.61
48810;BME280;40070;47.322;18.784;2023-02-23T00:38:38;1002.96;;;10.10;57.59
48810;BME280;40070;47.322;18.784;2023-02-23T00:40:40;1002.95;;;10.05;57.63
48810;BME280;40070;47.322;18.784;2023-02-23T00:42:43;1002.98;;;9.81;58.55
48810;BME280;40070;47.322;18.784;2023-02-23T00:44:46;1002.98;;;10.04;57.79
48810;BME280;40070;47.322;18.784;2023-02-23T00:46:48;1002.99;;;10.10;57.23
48810;BME280;40070;47.322;18.784;2023-02-23T00:48:51;1002.99;;;9.88;57.72
48810;BME280;40070;47.322;18.784;2023-02-23T00:51:03;1003.02;;;9.84;57.83
48810;BME280;40070;47.322;18.784;2023-02-23T00:53:05;1003.04;;;10.02;57.59
48810;BME280;40070;47.322;18.784;2023-02-23T00:55:09;1003.06;;;9.90;57.61
48810;BME280;40070;47.322;18.784;2023-02-23T00:57:11;1003.05;;;9.76;57.67
48810;BME280;40070;47.322;18.784;2023-02-23T00:59:14;1003.04;;;9.93;57.75
48810;BME280;40070;47.322;18.784;2023-02-23T01:01:16;1003.11;;;9.96;57.61
48810;BME280;40070;47.322;18.784;2023-02-23T01:03:19;1003.03;;;9.55;58.02
48810;BME280;40070;47.322;18.784;2023-02-23T01:05:21;1003.11;;;9.41;58.67
48810;BME280;40070;47.322;18.784;2023-02-23T01:07:23;1003.08;;;9.57;58.16
48810;BME280;40070;47.322;18.784;2023-02-23T01:09:26;1003.08;;;9.70;57.73
48810;BME280;40070;47.322;18.784;2023-02-23T01:11:28;1003.09;;;9.67;57.49
48810;BME280;40070;47.322;18.784;2023-02-23T01:13:30;1003.09;;;9.95;56.76
48810;BME280;40070;47.322;18.784;2023-02-23T01:15:33;1003.11;;;9.77;57.12
48810;BME280;40070;47.322;18.784;2023-02-23T01:17:35;1003.08;;;9.58;57.77
48810;BME280;40070;47.322;18.784;2023-02-23T01:19:38;1003.09;;;9.67;57.55
48810;BME280;40070;47.322;18.784;2023-02-23T01:21:41;1003.09;;;9.70;57.29
48810;BME280;40070;47.322;18.784;2023-02-23T01:23:43;1003.06;;;9.69;57.44
48810;BME280;40070;47.322;18.784;2023-02-23T01:25:46;1003.02;;;9.50;57.66
48810;BME280;40070;47.322;18.784;2023-02-23T01:27:48;1003.03;;;9.50;57.65
48810;BME280;40070;47.322;18.784;2023-02-23T01:29:51;1003.06;;;9.62;57.43
48810;BME280;40070;47.322;18.784;2023-02-23T01:31:54;1003.10;;;9.35;58.28
48810;BME280;40070;47.322;18.784;2023-02-23T01:34:00;1003.02;;;9.57;57.89
48810;BME280;40070;47.322;18.784;2023-02-23T01:36:03;1003.02;;;9.47;57.89
48810;BME280;40070;47.322;18.784;2023-02-23T01:38:06;1003.04;;;9.47;57.99
48810;BME280;40070;47.322;18.784;2023-02-23T01:40:12;1003.04;;;9.55;57.67
48810;BME280;40070;47.322;18.784;2023-02-23T01:42:15;1003.06;;;9.39;57.73
48810;BME280;40070;47.322;18.784;2023-02-23T01:46:35;1003.05;;;9.22;58.34
48810;BME280;40070;47.322;18.784;2023-02-23T01:48:38;1003.03;;;9.27;58.52
48810;BME280;40070;47.322;18.784;2023-02-23T01:50:42;1003.03;;;9.03;58.94
48810;BME280;40070;47.322;18.784;2023-02-23T01:52:46;1003.02;;;9.36;58.26
48810;BME280;40070;47.322;18.784;2023-02-23T01:54:51;1003.02;;;9.07;59.03
48810;BME280;40070;47.322;18.784;2023-02-23T01:56:55;1003.00;;;9.06;59.15
48810;BME280;40070;47.322;18.784;2023-02-23T01:58:58;1003.00;;;9.15;58.85
48810;BME280;40070;47.322;18.784;2023-02-23T02:01:03;1003.06;;;8.92;59.48
48810;BME280;40070;47.322;18.784;2023-02-23T02:03:07;1003.03;;;9.11;58.96
48810;BME280;40070;47.322;18.784;2023-02-23T02:05:10;1003.01;;;9.03;58.91
48810;BME280;40070;47.322;18.784;2023-02-23T02:07:15;1002.98;;;9.28;58.20
48810;BME280;40070;47.322;18.784;2023-02-23T02:09:19;1002.96;;;9.36;57.85
48810;BME280;40070;47.322;18.784;2023-02-23T02:11:23;1002.95;;;9.27;58.12
48810;BME280;40070;47.322;18.784;2023-02-23T02:13:27;1002.98;;;9.17;58.32
48810;BME280;40070;47.322;18.784;2023-02-23T02:15:30;1002.96;;;9.29;57.84
48810;BME280;40070;47.322;18.784;2023-02-23T02:17:36;1002.96;;;9.24;58.06
48810;BME280;40070;47.322;18.784;2023-02-23T02:31:25;1002.96;;;9.02;58.05
48810;BME280;40070;47.322;18.784;2023-02-23T02:40:48;1003.02;;;9.10;58.28
48810;BME280;40070;47.322;18.784;2023-02-23T02:43:11;1003.04;;;9.04;58.26
48810;BME280;40070;47.322;18.784;2023-02-23T02:47:47;1003.05;;;8.93;58.33
48810;BME280;40070;47.322;18.784;2023-02-23T02:50:00;1003.05;;;9.03;58.36
48810;BME280;40070;47.322;18.784;2023-02-23T02:52:38;1003.09;;;8.79;58.89
48810;BME280;40070;47.322;18.784;2023-02-23T02:54:29;1003.06;;;9.03;58.18
48810;BME280;40070;47.322;18.784;2023-02-23T02:56:34;1003.13;;;8.92;58.58
48810;BME280;40070;47.322;18.784;2023-02-23T02:58:37;1003.15;;;8.68;58.96
48810;BME280;40070;47.322;18.784;2023-02-23T03:00:41;1003.11;;;8.81;58.80
48810;BME280;40070;47.322;18.784;2023-02-23T03:02:43;1003.18;;;8.56;59.46
48810;BME280;40070;47.322;18.784;2023-02-23T03:04:46;1003.12;;;8.63;59.21
48810;BME280;40070;47.322;18.784;2023-02-23T03:06:51;1003.12;;;8.73;58.96
48810;BME280;40070;47.322;18.784;2023-02-23T03:09:13;1003.17;;;8.91;58.48
48810;BME280;40070;47.322;18.784;2023-02-23T03:11:18;1003.14;;;8.87;58.56
48810;BME280;40070;47.322;18.784;2023-02-23T03:13:29;1003.11;;;8.94;58.28
48810;BME280;40070;47.322;18.784;2023-02-23T03:15:59;1003.14;;;8.78;58.27
48810;BME280;40070;47.322;18.784;2023-02-23T03:22:42;1003.19;;;8.90;58.14
48810;BME280;40070;47.322;18.784;2023-02-23T03:24:50;1003.21;;;8.73;58.60
48810;BME280;40070;47.322;18.784;2023-02-23T03:26:58;1003.22;;;8.63;59.01
48810;BME280;40070;47.322;18.784;2023-02-23T03:29:13;1003.21;;;8.44;59.11
48810;BME280;40070;47.322;18.784;2023-02-23T03:33:44;1003.24;;;8.61;58.84
48810;BME280;40070;47.322;18.784;2023-02-23T03:35:56;1003.25;;;8.57;59.11
48810;BME280;40070;47.322;18.784;2023-02-23T03:38:04;1003.24;;;8.38;59.48
48810;BME280;40070;47.322;18.784;2023-02-23T03:42:34;1003.26;;;8.27;59.82
48810;BME280;40070;47.322;18.784;2023-02-23T03:44:39;1003.26;;;8.35;59.63
48810;BME280;40070;47.322;18.784;2023-02-23T03:46:42;1003.25;;;8.44;59.44
48810;BME280;40070;47.322;18.784;2023-02-23T03:48:47;1003.25;;;8.27;59.74
48810;BME280;40070;47.322;18.784;2023-02-23T03:50:52;1003.25;;;8.31;59.75
48810;BME280;40070;47.322;18.784;2023-02-23T03:52:55;1003.25;;;8.30;59.87
48810;BME280;40070;47.322;18.784;2023-02-23T03:55:02;1003.28;;;8.15;60.27
48810;BME280;40070;47.322;18.784;2023-02-23T03:57:06;1003.23;;;8.49;59.38
48810;BME280;40070;47.322;18.784;2023-02-23T03:59:11;1003.27;;;8.36;59.58
48810;BME280;40070;47.322;18.784;2023-02-23T04:01:16;1003.27;;;8.42;59.53
48810;BME280;40070;47.322;18.784;2023-02-23T04:03:20;1003.27;;;8.11;60.03
48810;BME280;40070;47.322;18.784;2023-02-23T04:05:24;1003.24;;;8.38;59.86
48810;BME280;40070;47.322;18.784;2023-02-23T04:07:27;1003.22;;;8.36;59.56
48810;BME280;40070;47.322;18.784;2023-02-23T04:09:30;1003.23;;;8.21;59.87
48810;BME280;40070;47.322;18.784;2023-02-23T04:11:39;1003.24;;;8.13;60.02
48810;BME280;40070;47.322;18.784;2023-02-23T04:13:43;1003.21;;;8.14;60.14
48810;BME280;40070;47.322;18.784;2023-02-23T04:15:54;1003.23;;;8.26;59.79
48810;BME280;40070;47.322;18.784;2023-02-23T04:17:58;1003.22;;;8.17;59.60
48810;BME280;40070;47.322;18.784;2023-02-23T04:20:00;1003.24;;;7.93;60.55
48810;BME280;40070;47.322;18.784;2023-02-23T04:22:02;1003.19;;;7.83;60.94
48810;BME280;40070;47.322;18.784;2023-02-23T04:24:05;1003.23;;;7.74;61.19
48810;BME280;40070;47.322;18.784;2023-02-23T04:26:07;1003.24;;;8.02;60.31
48810;BME280;40070;47.322;18.784;2023-02-23T04:28:10;1003.21;;;7.88;60.53
48810;BME280;40070;47.322;18.784;2023-02-23T04:30:12;1003.28;;;7.90;60.39
48810;BME280;40070;47.322;18.784;2023-02-23T04:32:16;1003.24;;;8.02;59.96
48810;BME280;40070;47.322;18.784;2023-02-23T04:34:18;1003.25;;;7.90;60.41
48810;BME280;40070;47.322;18.784;2023-02-23T04:36:20;1003.27;;;8.13;59.79
48810;BME280;40070;47.322;18.784;2023-02-23T04:38:23;1003.31;;;8.09;59.67
48810;BME280;40070;47.322;18.784;2023-02-23T04:40:26;1003.27;;;7.96;60.10
48810;BME280;40070;47.322;18.784;2023-02-23T04:42:28;1003.34;;;8.18;59.46
48810;BME280;40070;47.322;18.784;2023-02-23T04:44:31;1003.33;;;8.13;59.23
48810;BME280;40070;47.322;18.784;2023-02-23T04:46:33;1003.34;;;8.23;59.02
48810;BME280;40070;47.322;18.784;2023-02-23T04:48:35;1003.30;;;8.19;58.95
48810;BME280;40070;47.322;18.784;2023-02-23T04:50:38;1003.31;;;8.40;58.72
48810;BME280;40070;47.322;18.784;2023-02-23T04:52:40;1003.31;;;8.19;59.03
48810;BME280;40070;47.322;18.784;2023-02-23T04:54:43;1003.31;;;8.17;59.06
48810;BME280;40070;47.322;18.784;2023-02-23T04:56:45;1003.35;;;8.19;59.08
48810;BME280;40070;47.322;18.784;2023-02-23T04:58:47;1003.33;;;8.11;59.01
48810;BME280;40070;47.322;18.784;2023-02-23T05:00:50;1003.31;;;8.15;59.19
48810;BME280;40070;47.322;18.784;2023-02-23T05:02:52;1003.30;;;8.18;58.95
48810;BME280;40070;47.322;18.784;2023-02-23T05:04:54;1003.27;;;8.23;58.81
48810;BME280;40070;47.322;18.784;2023-02-23T05:06:57;1003.30;;;8.19;58.75
48810;BME280;40070;47.322;18.784;2023-02-23T05:08:59;1003.29;;;8.28;58.61
48810;BME280;40070;47.322;18.784;2023-02-23T05:11:02;1003.34;;;8.17;58.71
48810;BME280;40070;47.322;18.784;2023-02-23T05:13:04;1003.32;;;8.39;58.78
48810;BME280;40070;47.322;18.784;2023-02-23T05:15:06;1003.34;;;8.17;58.88
48810;BME280;40070;47.322;18.784;2023-02-23T05:17:09;1003.30;;;8.27;58.86
48810;BME280;40070;47.322;18.784;2023-02-23T05:19:11;1003.32;;;8.02;59.70
48810;BME280;40070;47.322;18.784;2023-02-23T05:21:14;1003.29;;;7.99;59.76
48810;BME280;40070;47.322;18.784;2023-02-23T05:23:16;1003.32;;;8.20;59.34
48810;BME280;40070;47.322;18.784;2023-02-23T05:25:19;1003.35;;;8.14;59.34
48810;BME280;40070;47.322;18.784;2023-02-23T05:27:21;1003.32;;;8.16;59.51
48810;BME280;40070;47.322;18.784;2023-02-23T05:29:24;1003.38;;;8.21;59.29
48810;BME280;40070;47.322;18.784;2023-02-23T05:31:26;1003.35;;;8.11;59.79
48810;BME280;40070;47.322;18.784;2023-02-23T05:33:29;1003.40;;;8.15;59.94
48810;BME280;40070;47.322;18.784;2023-02-23T05:35:31;1003.39;;;8.07;59.58
48810;BME280;40070;47.322;18.784;2023-02-23T05:37:34;1003.43;;;8.24;59.41
48810;BME280;40070;47.322;18.784;2023-02-23T05:39:36;1003.42;;;8.06;59.88
48810;BME280;40070;47.322;18.784;2023-02-23T05:41:38;1003.48;;;8.21;59.85
48810;BME280;40070;47.322;18.784;2023-02-23T05:43:41;1003.51;;;8.55;58.71
48810;BME280;40070;47.322;18.784;2023-02-23T05:45:43;1003.53;;;8.28;59.22
48810;BME280;40070;47.322;18.784;2023-02-23T05:47:46;1003.54;;;8.35;59.17
48810;BME280;40070;47.322;18.784;2023-02-23T05:49:48;1003.55;;;8.56;58.71
48810;BME280;40070;47.322;18.784;2023-02-23T05:51:50;1003.58;;;8.66;58.61
48810;BME280;40070;47.322;18.784;2023-02-23T05:53:53;1003.56;;;8.63;58.76
48810;BME280;40070;47.322;18.784;2023-02-23T05:55:55;1003.60;;;8.60;58.75
48810;BME280;40070;47.322;18.784;2023-02-23T05:57:58;1003.61;;;8.73;58.68
48810;BME280;40070;47.322;18.784;2023-02-23T06:00:00;1003.63;;;8.59;58.23
48810;BME280;40070;47.322;18.784;2023-02-23T06:02:02;1003.66;;;8.63;58.16
48810;BME280;40070;47.322;18.784;2023-02-23T06:04:05;1003.71;;;8.44;58.68
48810;BME280;40070;47.322;18.784;2023-02-23T06:06:07;1003.72;;;8.62;58.37
48810;BME280;40070;47.322;18.784;2023-02-23T06:08:09;1003.73;;;8.45;58.56
48810;BME280;40070;47.322;18.784;2023-02-23T06:10:12;1003.74;;;8.40;58.67
48810;BME280;40070;47.322;18.784;2023-02-23T06:12:14;1003.74;;;8.30;58.93
48810;BME280;40070;47.322;18.784;2023-02-23T06:14:17;1003.77;;;8.28;59.20
48810;BME280;40070;47.322;18.784;2023-02-23T06:16:19;1003.82;;;8.43;58.95
48810;BME280;40070;47.322;18.784;2023-02-23T06:18:21;1003.84;;;8.54;58.73
48810;BME280;40070;47.322;18.784;2023-02-23T06:20:24;1003.90;;;8.64;58.34
48810;BME280;40070;47.322;18.784;2023-02-23T06:22:26;1003.87;;;8.37;58.82
48810;BME280;40070;47.322;18.784;2023-02-23T06:24:28;1003.90;;;8.48;58.75
48810;BME280;40070;47.322;18.784;2023-02-23T06:26:31;1003.91;;;8.43;58.67
48810;BME280;40070;47.322;18.784;2023-02-23T06:28:33;1003.95;;;8.64;58.49
48810;BME280;40070;47.322;18.784;2023-02-23T06:30:36;1003.99;;;8.57;58.63
48810;BME280;40070;47.322;18.784;2023-02-23T06:32:38;1003.97;;;8.64;58.63
48810;BME280;40070;47.322;18.784;2023-02-23T06:34:41;1004.03;;;8.86;58.03
48810;BME280;40070;47.322;18.784;2023-02-23T06:36:43;1004.05;;;8.98;57.54
48810;BME280;40070;47.322;18.784;2023-02-23T06:38:46;1004.10;;;8.53;58.37
48810;BME280;40070;47.322;18.784;2023-02-23T06:40:48;1004.13;;;8.52;58.51
48810;BME280;40070;47.322;18.784;2023-02-23T06:42:50;1004.15;;;8.76;58.16
48810;BME280;40070;47.322;18.784;2023-02-23T06:44:53;1004.19;;;8.90;57.80
48810;BME280;40070;47.322;18.784;2023-02-23T06:46:56;1004.19;;;8.83;57.75
48810;BME280;40070;47.322;18.784;2023-02-23T06:48:58;1004.15;;;8.81;57.82
48810;BME280;40070;47.322;18.784;2023-02-23T06:51:00;1004.20;;;9.02;57.11
48810;BME280;40070;47.322;18.784;2023-02-23T06:53:03;1004.21;;;8.85;57.72
48810;BME280;40070;47.322;18.784;2023-02-23T06:55:06;1004.19;;;8.86;57.69
48810;BME280;40070;47.322;18.784;2023-02-23T06:57:08;1004.25;;;9.05;57.70
48810;BME280;40070;47.322;18.784;2023-02-23T06:59:11;1004.23;;;9.06;56.90
48810;BME280;40070;47.322;18.784;2023-02-23T07:01:13;1004.25;;;9.09;57.10
48810;BME280;40070;47.322;18.784;2023-02-23T07:03:16;1004.27;;;9.21;56.61
48810;BME280;40070;47.322;18.784;2023-02-23T07:05:18;1004.27;;;8.95;56.72
48810;BME280;40070;47.322;18.784;2023-02-23T07:07:21;1004.27;;;9.06;56.96
48810;BME280;40070;47.322;18.784;2023-02-23T07:09:23;1004.28;;;8.73;57.94
48810;BME280;40070;47.322;18.784;2023-02-23T07:11:25;1004.29;;;8.80;57.71
48810;BME280;40070;47.322;18.784;2023-02-23T07:13:28;1004.34;;;8.89;57.35
48810;BME280;40070;47.322;18.784;2023-02-23T07:15:30;1004.35;;;8.90;57.25
48810;BME280;40070;47.322;18.784;2023-02-23T07:17:33;1004.34;;;9.02;56.82
48810;BME280;40070;47.322;18.784;2023-02-23T07:19:35;1004.31;;;9.01;56.74
48810;BME280;40070;47.322;18.784;2023-02-23T07:21:37;1004.35;;;8.85;56.82
48810;BME280;40070;47.322;18.784;2023-02-23T07:23:40;1004.36;;;8.78;57.24
48810;BME280;40070;47.322;18.784;2023-02-23T07:25:42;1004.33;;;8.79;57.13
48810;BME280;40070;47.322;18.784;2023-02-23T07:27:45;1004.33;;;8.85;57.06
48810;BME280;40070;47.322;18.784;2023-02-23T07:29:47;1004.34;;;8.83;57.14
48810;BME280;40070;47.322;18.784;2023-02-23T07:31:49;1004.34;;;8.85;56.20
48810;BME280;40070;47.322;18.784;2023-02-23T07:33:52;1004.33;;;8.93;56.31
48810;BME280;40070;47.322;18.784;2023-02-23T07:35:55;1004.37;;;8.93;56.45
48810;BME280;40070;47.322;18.784;2023-02-23T07:37:57;1004.35;;;8.92;56.17
48810;BME280;40070;47.322;18.784;2023-02-23T07:39:59;1004.37;;;9.08;55.83
48810;BME280;40070;47.322;18.784;2023-02-23T07:42:02;1004.31;;;9.24;55.47
48810;BME280;40070;47.322;18.784;2023-02-23T07:44:05;1004.38;;;9.23;55.57
48810;BME280;40070;47.322;18.784;2023-02-23T07:46:07;1004.39;;;9.27;55.58
48810;BME280;40070;47.322;18.784;2023-02-23T07:48:09;1004.38;;;9.40;55.41
48810;BME280;40070;47.322;18.784;2023-02-23T07:50:12;1004.35;;;9.32;54.78
48810;BME280;40070;47.322;18.784;2023-02-23T07:52:16;1004.38;;;9.14;55.68
48810;BME280;40070;47.322;18.784;2023-02-23T07:54:18;1004.34;;;9.53;54.94
48810;BME280;40070;47.322;18.784;2023-02-23T07:56:20;1004.38;;;9.46;55.08
48810;BME280;40070;47.322;18.784;2023-02-23T07:58:23;1004.39;;;9.41;54.43
48810;BME280;40070;47.322;18.784;2023-02-23T08:00:25;1004.38;;;9.53;54.58
48810;BME280;40070;47.322;18.784;2023-02-23T08:02:28;1004.36;;;9.76;54.53
48810;BME280;40070;47.322;18.784;2023-02-23T08:04:30;1004.37;;;9.60;53.70
48810;BME280;40070;47.322;18.784;2023-02-23T08:06:32;1004.39;;;9.42;53.84
48810;BME280;40070;47.322;18.784;2023-02-23T08:08:35;1004.42;;;9.18;54.56
48810;BME280;40070;47.322;18.784;2023-02-23T08:10:37;1004.41;;;9.53;54.53
48810;BME280;40070;47.322;18.784;2023-02-23T08:12:40;1004.41;;;9.62;53.63
48810;BME280;40070;47.322;18.784;2023-02-23T08:14:42;1004.44;;;9.51;54.21
48810;BME280;40070;47.322;18.784;2023-02-23T08:16:45;1004.41;;;9.77;53.33
48810;BME280;40070;47.322;18.784;2023-02-23T08:18:47;1004.44;;;9.90;53.47
48810;BME280;40070;47.322;18.784;2023-02-23T08:20:49;1004.44;;;9.79;53.06
48810;BME280;40070;47.322;18.784;2023-02-23T08:22:55;1004.50;;;9.76;52.86
48810;BME280;40070;47.322;18.784;2023-02-23T08:24:57;1004.47;;;9.90;52.79
48810;BME280;40070;47.322;18.784;2023-02-23T08:27:00;1004.45;;;9.98;53.21
48810;BME280;40070;47.322;18.784;2023-02-23T08:29:02;1004.49;;;10.02;53.17
48810;BME280;40070;47.322;18.784;2023-02-23T08:31:07;1004.48;;;10.10;52.41
48810;BME280;40070;47.322;18.784;2023-02-23T08:33:10;1004.49;;;10.12;52.19
48810;BME280;40070;47.322;18.784;2023-02-23T08:35:13;1004.56;;;10.22;51.35
48810;BME280;40070;47.322;18.784;2023-02-23T08:37:15;1004.55;;;10.30;51.45
48810;BME280;40070;47.322;18.784;2023-02-23T08:39:17;1004.54;;;10.24;51.96
48810;BME280;40070;47.322;18.784;2023-02-23T08:41:20;1004.53;;;10.18;51.42
48810;BME280;40070;47.322;18.784;2023-02-23T08:43:23;1004.57;;;10.10;51.59
48810;BME280;40070;47.322;18.784;2023-02-23T08:45:25;1004.60;;;10.19;51.30
48810;BME280;40070;47.322;18.784;2023-02-23T08:47:27;1004.59;;;10.19;51.25
48810;BME280;40070;47.322;18.784;2023-02-23T08:49:30;1004.56;;;10.23;51.71
48810;BME280;40070;47.322;18.784;2023-02-23T08:51:32;1004.59;;;10.22;51.64
48810;BME280;40070;47.322;18.784;2023-02-23T08:53:35;1004.62;;;9.95;52.56
48810;BME280;40070;47.322;18.784;2023-02-23T08:55:37;1004.59;;;10.10;52.13
48810;BME280;40070;47.322;18.784;2023-02-23T08:57:39;1004.60;;;10.47;50.98
48810;BME280;40070;47.322;18.784;2023-02-23T08:59:42;1004.56;;;10.61;50.58
48810;BME280;40070;47.322;18.784;2023-02-23T09:01:44;1004.60;;;10.27;51.00
48810;BME280;40070;47.322;18.784;2023-02-23T09:03:47;1004.63;;;10.24;51.68
48810;BME280;40070;47.322;18.784;2023-02-23T09:05:49;1004.63;;;10.27;50.98
48810;BME280;40070;47.322;18.784;2023-02-23T09:07:51;1004.62;;;10.45;51.37
48810;BME280;40070;47.322;18.784;2023-02-23T09:09:54;1004.60;;;10.72;50.32
48810;BME280;40070;47.322;18.784;2023-02-23T09:11:56;1004.64;;;10.84;49.95
48810;BME280;40070;47.322;18.784;2023-02-23T09:13:59;1004.63;;;10.78;50.19
48810;BME280;40070;47.322;18.784;2023-02-23T09:16:01;1004.63;;;10.82;50.32
48810;BME280;40070;47.322;18.784;2023-02-23T09:18:04;1004.64;;;10.96;49.77
48810;BME280;40070;47.322;18.784;2023-02-23T09:20:07;1004.61;;;10.91;49.06
48810;BME280;40070;47.322;18.784;2023-02-23T09:22:10;1004.66;;;11.03;48.86
48810;BME280;40070;47.322;18.784;2023-02-23T09:24:12;1004.62;;;10.86;49.49
48810;BME280;40070;47.322;18.784;2023-02-23T09:26:14;1004.60;;;10.91;49.83
48810;BME280;40070;47.322;18.784;2023-02-23T09:28:17;1004.67;;;11.08;49.39
48810;BME280;40070;47.322;18.784;2023-02-23T09:30:20;1004.67;;;11.08;49.23
48810;BME280;40070;47.322;18.784;2023-02-23T09:32:23;1004.72;;;10.93;49.06
48810;BME280;40070;47.322;18.784;2023-02-23T09:34:25;1004.72;;;11.10;48.86
48810;BME280;40070;47.322;18.784;2023-02-23T09:36:28;1004.73;;;10.70;49.41
48810;BME280;40070;47.322;18.784;2023-02-23T09:38:30;1004.74;;;10.74;49.00
48810;BME280;40070;47.322;18.784;2023-02-23T09:45:14;1004.71;;;10.75;49.81
48810;BME280;40070;47.322;18.784;2023-02-23T09:47:30;1004.76;;;10.85;48.95
48810;BME280;40070;47.322;18.784;2023-02-23T09:49:35;1004.77;;;10.87;49.01
48810;BME280;40070;47.322;18.784;2023-02-23T09:51:40;1004.75;;;10.72;49.45
48810;BME280;40070;47.322;18.784;2023-02-23T09:53:54;1004.78;;;10.87;49.76
48810;BME280;40070;47.322;18.784;2023-02-23T09:55:58;1004.78;;;10.84;48.74
48810;BME280;40070;47.322;18.784;2023-02-23T09:58:03;1004.82;;;11.07;48.83
48810;BME280;40070;47.322;18.784;2023-02-23T10:00:18;1004.77;;;10.97;48.62
48810;BME280;40070;47.322;18.784;2023-02-23T10:02:35;1004.71;;;11.08;48.71
48810;BME280;40070;47.322;18.784;2023-02-23T10:04:45;1004.70;;;11.06;49.49
48810;BME280;40070;47.322;18.784;2023-02-23T10:07:34;1004.73;;;11.34;49.26
48810;BME280;40070;47.322;18.784;2023-02-23T10:09:14;1004.75;;;11.53;48.02
48810;BME280;40070;47.322;18.784;2023-02-23T10:11:23;1004.76;;;11.56;47.97
48810;BME280;40070;47.322;18.784;2023-02-23T10:15:52;1004.72;;;11.28;48.95
48810;BME280;40070;47.322;18.784;2023-02-23T10:18:02;1004.73;;;11.13;49.05
48810;BME280;40070;47.322;18.784;2023-02-23T10:20:18;1004.74;;;11.21;49.10
48810;BME280;40070;47.322;18.784;2023-02-23T10:22:22;1004.70;;;11.26;48.63
48810;BME280;40070;47.322;18.784;2023-02-23T10:24:33;1004.74;;;11.49;48.32
48810;BME280;40070;47.322;18.784;2023-02-23T10:26:38;1004.71;;;11.30;48.17
48810;BME280;40070;47.322;18.784;2023-02-23T10:28:42;1004.67;;;11.43;48.16
48810;BME280;40070;47.322;18.784;2023-02-23T10:30:45;1004.63;;;11.25;48.29
48810;BME280;40070;47.322;18.784;2023-02-23T10:35:04;1004.59;;;11.20;48.84
48810;BME280;40070;47.322;18.784;2023-02-23T10:37:11;1004.55;;;11.34;48.65
48810;BME280;40070;47.322;18.784;2023-02-23T10:39:13;1004.52;;;11.33;48.72
48810;BME280;40070;47.322;18.784;2023-02-23T10:41:16;1004.54;;;11.30;48.93
48810;BME280;40070;47.322;18.784;2023-02-23T10:43:18;1004.50;;;11.50;48.12
48810;BME280;40070;47.322;18.784;2023-02-23T10:45:21;1004.53;;;11.85;47.60
48810;BME280;40070;47.322;18.784;2023-02-23T10:47:28;1004.53;;;11.66;47.87
48810;BME280;40070;47.322;18.784;2023-02-23T10:49:37;1004.44;;;11.89;47.68
48810;BME280;40070;47.322;18.784;2023-02-23T10:51:40;1004.43;;;12.14;47.37
48810;BME280;40070;47.322;18.784;2023-02-23T10:53:44;1004.42;;;12.12;47.22
48810;BME280;40070;47.322;18.784;2023-02-23T10:55:46;1004.36;;;12.19;47.04
48810;BME280;40070;47.322;18.784;2023-02-23T10:58:13;1004.35;;;11.94;47.38
48810;BME280;40070;47.322;18.784;2023-02-23T11:02:28;1004.27;;;11.93;46.80
48810;BME280;40070;47.322;18.784;2023-02-23T11:04:31;1004.28;;;12.02;46.99
48810;BME280;40070;47.322;18.784;2023-02-23T11:06:37;1004.25;;;11.85;47.25
48810;BME280;40070;47.322;18.784;2023-02-23T11:08:40;1004.23;;;12.02;46.97
48810;BME280;40070;47.322;18.784;2023-02-23T11:10:42;1004.18;;;11.95;47.06
48810;BME280;40070;47.322;18.784;2023-02-23T11:12:55;1004.17;;;12.05;46.73
48810;BME280;40070;47.322;18.784;2023-02-23T11:14:58;1004.14;;;11.74;47.84
48810;BME280;40070;47.322;18.784;2023-02-23T11:17:00;1004.16;;;11.54;48.17
48810;BME280;40070;47.322;18.784;2023-02-23T11:19:03;1004.13;;;11.76;47.77
48810;BME280;40070;47.322;18.784;2023-02-23T11:21:10;1004.15;;;11.49;48.06
48810;BME280;40070;47.322;18.784;2023-02-23T11:23:26;1004.14;;;11.31;49.34
48810;BME280;40070;47.322;18.784;2023-02-23T11:25:30;1004.11;;;11.55;48.00
48810;BME280;40070;47.322;18.784;2023-02-23T11:27:33;1004.13;;;11.35;49.50
48810;BME280;40070;47.322;18.784;2023-02-23T11:29:38;1004.06;;;11.55;48.50
48810;BME280;40070;47.322;18.784;2023-02-23T11:31:47;1004.03;;;11.55;48.71
48810;BME280;40070;47.322;18.784;2023-02-23T11:33:50;1004.02;;;11.75;48.00
48810;BME280;40070;47.322;18.784;2023-02-23T11:35:58;1004.06;;;11.74;48.23
48810;BME280;40070;47.322;18.784;2023-02-23T11:40:21;1003.98;;;12.06;47.44
48810;BME280;40070;47.322;18.784;2023-02-23T11:42:32;1004.06;;;11.86;48.21
48810;BME280;40070;47.322;18.784;2023-02-23T11:44:35;1004.01;;;11.92;47.91
48810;BME280;40070;47.322;18.784;2023-02-23T11:46:37;1004.03;;;11.92;47.83
48810;BME280;40070;47.322;18.784;2023-02-23T11:49:27;1003.97;;;12.08;47.38
48810;BME280;40070;47.322;18.784;2023-02-23T11:50:54;1003.95;;;12.17;47.00